Time;durP1;ratioP1;P1;durP2;ratioP2;P2;SDS_P1;SDS_P2;PMS_P1;PMS_P2;Temp;Humidity;BMP_temperature;BMP_pressure;BME280_temperature;BME280_humidity;BME280_pressure;Samples;Min_cycle;Max_cycle;Signal;HPM_P1;HPM_P2
2021/06/25 00:01:12;;;;;;;8.20;5.88;;;;;;;19.05;70.08;97501.19;5035469;28;20066;-78
2021/06/25 00:03:39;;;;;;;6.63;5.75;;;;;;;19.04;69.87;97501.50;5019619;28;20050;-78
2021/06/25 00:06:04;;;;;;;5.95;5.22;;;;;;;19.03;70.39;97499.94;5038362;28;20083;-78
2021/06/25 00:08:30;;;;;;;6.47;5.65;;;;;;;19.00;70.12;97497.88;5044793;28;20064;-79
2021/06/25 00:10:55;;;;;;;6.88;5.50;;;;;;;19.03;70.30;97497.28;5052804;28;20036;-78
2021/06/25 00:13:20;;;;;;;6.78;6.05;;;;;;;18.99;70.56;97494.47;5069132;28;20068;-78
2021/06/25 00:15:46;;;;;;;8.48;5.70;;;;;;;19.01;70.54;97496.81;5026207;28;20041;-78
2021/06/25 00:18:11;;;;;;;7.05;5.97;;;;;;;19.00;70.38;97496.00;5051099;28;20059;-78
2021/06/25 00:20:37;;;;;;;7.45;5.90;;;;;;;19.00;70.51;97498.66;5068116;28;20864;-78
2021/06/25 00:23:04;;;;;;;7.43;6.47;;;;;;;19.03;70.48;97489.38;5038810;28;20035;-78
2021/06/25 00:25:30;;;;;;;7.53;6.78;;;;;;;19.04;70.27;97496.22;5047796;28;20071;-78
2021/06/25 00:27:55;;;;;;;9.38;7.57;;;;;;;19.03;70.22;97500.72;5069924;28;20037;-78
2021/06/25 00:30:21;;;;;;;9.15;6.47;;;;;;;19.02;70.37;97501.00;5068058;28;20028;-78
2021/06/25 00:32:47;;;;;;;8.50;7.28;;;;;;;18.97;70.47;97498.44;5052178;28;20028;-78
2021/06/25 00:35:13;;;;;;;9.95;7.88;;;;;;;18.93;70.52;97503.53;5067972;28;20467;-78
2021/06/25 00:37:38;;;;;;;9.25;7.80;;;;;;;18.93;70.59;97486.91;5014265;28;20032;-78
2021/06/25 00:40:05;;;;;;;9.43;7.00;;;;;;;18.89;70.75;97489.34;5044323;28;20043;-78
2021/06/25 00:42:30;;;;;;;9.20;7.10;;;;;;;18.90;70.54;97489.06;5051762;28;20033;-78
2021/06/25 00:44:56;;;;;;;9.20;7.85;;;;;;;18.88;70.53;97493.88;5039183;28;20032;-78
2021/06/25 00:47:21;;;;;;;8.70;6.68;;;;;;;18.88;70.60;97483.31;5049482;28;20033;-78
2021/06/25 00:49:46;;;;;;;9.63;6.50;;;;;;;18.93;70.57;97492.97;5069058;28;20036;-78
2021/06/25 00:52:16;;;;;;;9.40;7.35;;;;;;;18.85;70.35;97494.44;5067653;28;20685;-78
2021/06/25 00:54:41;;;;;;;9.43;7.25;;;;;;;18.92;70.56;97494.06;5067969;28;20082;-78
2021/06/25 00:57:07;;;;;;;8.57;7.40;;;;;;;18.96;70.53;97496.91;5068156;28;20028;-79
2021/06/25 00:59:33;;;;;;;7.18;6.45;;;;;;;18.94;70.66;97485.84;5064105;28;20108;-78
2021/06/25 01:01:58;;;;;;;8.70;6.85;;;;;;;18.94;70.43;97491.13;5041907;28;20496;-78
2021/06/25 01:04:24;;;;;;;8.40;6.80;;;;;;;18.94;70.44;97493.78;5049154;28;20051;-78
2021/06/25 01:06:49;;;;;;;9.25;7.25;;;;;;;18.98;70.24;97492.88;5044564;28;20628;-78
2021/06/25 01:09:16;;;;;;;10.15;7.43;;;;;;;18.91;70.27;97492.47;5067282;28;20047;-78
2021/06/25 01:11:42;;;;;;;9.80;7.80;;;;;;;18.88;70.68;97490.41;5016536;28;20029;-78
2021/06/25 01:14:07;;;;;;;9.05;7.70;;;;;;;18.89;70.73;97490.13;5013340;28;20033;-78
2021/06/25 01:16:32;;;;;;;8.57;7.15;;;;;;;18.86;70.56;97488.06;5047219;28;20052;-78
2021/06/25 01:18:58;;;;;;;9.65;7.28;;;;;;;18.89;70.48;97492.00;5065025;28;20028;-78
2021/06/25 01:21:23;;;;;;;10.00;8.57;;;;;;;18.88;70.69;97482.50;5048540;28;20064;-78
2021/06/25 01:23:49;;;;;;;11.43;8.77;;;;;;;18.85;70.35;97473.34;5032090;28;20560;-78
2021/06/25 01:26:14;;;;;;;11.20;8.77;;;;;;;18.87;70.60;97476.47;5048929;28;20032;-78
2021/06/25 01:28:40;;;;;;;13.90;10.02;;;;;;;18.90;70.33;97481.16;5027476;28;20446;-78
2021/06/25 01:31:05;;;;;;;12.23;10.13;;;;;;;18.93;70.44;97484.28;5067810;28;20047;-79
2021/06/25 01:33:32;;;;;;;13.75;10.25;;;;;;;18.86;70.19;97477.50;5051078;28;20397;-78
2021/06/25 01:35:57;;;;;;;17.83;12.23;;;;;;;18.93;70.39;97486.91;5020614;28;20064;-78
2021/06/25 01:38:24;;;;;;;16.02;12.52;;;;;;;18.90;70.12;97486.44;5041409;28;20411;-79
2021/06/25 01:40:49;;;;;;;22.48;16.15;;;;;;;18.87;70.29;97483.59;5051175;28;20472;-78
2021/06/25 01:43:15;;;;;;;22.20;16.52;;;;;;;18.89;69.92;97486.72;5045622;28;20032;-78
2021/06/25 01:45:41;;;;;;;23.90;17.27;;;;;;;18.90;69.81;97483.00;5071868;28;20039;-78
2021/06/25 01:48:08;;;;;;;26.52;17.48;;;;;;;18.90;69.68;97483.78;5036003;28;20043;-78
2021/06/25 01:50:39;;;;;;;28.00;18.55;;;;;;;18.78;70.09;97478.19;5051321;28;20489;-77
2021/06/25 01:53:16;;;;;;;27.58;19.83;;;;;;;18.58;70.17;97487.19;5033376;28;20056;-77
2021/06/25 01:55:43;;;;;;;26.83;19.75;;;;;;;18.81;69.86;97472.28;5069178;28;20040;-78
2021/06/25 01:58:11;;;;;;;28.95;18.95;;;;;;;18.79;69.69;97479.72;5071874;28;20371;-78
2021/06/25 02:00:39;;;;;;;30.92;20.30;;;;;;;18.73;70.17;97478.25;5055627;28;20035;-77
2021/06/25 02:03:04;;;;;;;31.13;20.80;;;;;;;18.75;70.53;97480.59;5072184;28;20063;-77
2021/06/25 02:05:30;;;;;;;31.80;21.38;;;;;;;18.72;70.37;97479.31;5021700;28;20479;-77
2021/06/25 02:07:55;;;;;;;34.15;21.35;;;;;;;18.81;70.13;97482.06;5056018;28;20059;-78
2021/06/25 02:10:20;;;;;;;37.65;24.02;;;;;;;18.72;70.01;97477.47;5040330;28;20037;-78
2021/06/25 02:12:46;;;;;;;32.88;22.58;;;;;;;18.77;69.88;97476.59;5053699;28;20064;-78
2021/06/25 02:15:12;;;;;;;33.55;23.20;;;;;;;18.74;70.18;97477.16;5055878;28;20025;-78
2021/06/25 02:17:37;;;;;;;37.35;24.42;;;;;;;18.75;69.71;97476.13;5055939;28;20036;-77
2021/06/25 02:20:04;;;;;;;37.58;24.42;;;;;;;18.66;69.99;97470.72;5052765;28;20028;-77
2021/06/25 02:22:30;;;;;;;37.53;24.50;;;;;;;18.69;70.30;97475.41;5049548;28;20029;-77
2021/06/25 02:24:55;;;;;;;32.08;22.60;;;;;;;18.66;70.26;97469.91;5045392;28;20025;-78
2021/06/25 02:27:20;;;;;;;30.40;22.17;;;;;;;18.73;70.07;97478.25;5037801;28;20036;-78
2021/06/25 02:29:46;;;;;;;36.70;24.25;;;;;;;18.67;70.26;97479.41;5054700;28;20390;-77
2021/06/25 02:32:11;;;;;;;37.28;23.92;;;;;;;18.61;70.39;97481.34;5072216;28;20035;-77
2021/06/25 02:34:37;;;;;;;38.50;27.05;;;;;;;18.59;70.02;97478.19;5052042;28;20025;-77
2021/06/25 02:37:02;;;;;;;35.25;23.55;;;;;;;18.64;69.83;97485.25;5070597;28;20040;-78
2021/06/25 02:39:27;;;;;;;35.90;24.80;;;;;;;18.65;69.80;97489.47;5043406;28;20055;-78
2021/06/25 02:41:53;;;;;;;36.08;24.10;;;;;;;18.62;69.81;97484.75;5052520;28;20059;-77
2021/06/25 02:44:18;;;;;;;38.00;26.58;;;;;;;18.60;69.87;97477.13;5064637;28;20025;-77
2021/06/25 02:46:44;;;;;;;37.83;25.85;;;;;;;18.59;69.63;97482.69;5048418;28;20040;-77
2021/06/25 02:49:09;;;;;;;39.10;26.92;;;;;;;18.49;70.10;97484.44;5054765;28;20032;-77
2021/06/25 02:51:34;;;;;;;36.13;24.77;;;;;;;18.55;69.91;97482.50;5053736;28;20048;-77
2021/06/25 02:54:00;;;;;;;38.45;26.38;;;;;;;18.51;69.94;97478.88;5051650;28;20039;-77
2021/06/25 02:56:25;;;;;;;39.33;27.98;;;;;;;18.54;69.79;97486.19;5072043;28;20135;-77
2021/06/25 02:58:50;;;;;;;38.42;25.73;;;;;;;18.50;69.94;97482.56;5071814;28;20039;-77
2021/06/25 03:01:16;;;;;;;37.80;26.30;;;;;;;18.50;70.15;97488.63;5055088;28;20029;-78
2021/06/25 03:03:41;;;;;;;42.47;27.30;;;;;;;18.47;70.36;97493.69;5018474;28;20033;-77
2021/06/25 03:06:07;;;;;;;41.78;26.33;;;;;;;18.43;70.91;97487.44;5063378;28;20548;-77
2021/06/25 03:08:32;;;;;;;39.90;26.45;;;;;;;18.45;70.52;97486.06;5053512;28;20638;-77
2021/06/25 03:10:59;;;;;;;40.75;25.92;;;;;;;18.45;70.50;97487.94;5055457;28;20032;-77
2021/06/25 03:13:25;;;;;;;46.25;28.92;;;;;;;18.48;70.64;97490.00;5041867;28;20480;-77
2021/06/25 03:15:52;;;;;;;44.83;29.17;;;;;;;18.44;70.13;97486.34;5034662;28;20563;-77
2021/06/25 03:18:18;;;;;;;43.72;28.33;;;;;;;18.44;70.14;97489.00;5055368;28;20047;-77
2021/06/25 03:20:44;;;;;;;39.75;26.25;;;;;;;18.46;70.00;97484.22;5038779;28;20051;-77
2021/06/25 03:23:09;;;;;;;42.75;28.02;;;;;;;18.42;70.09;97477.94;5036074;28;20021;-77
2021/06/25 03:25:35;;;;;;;46.55;30.35;;;;;;;18.42;70.02;97485.88;5053082;28;20123;-77
2021/06/25 03:28:02;;;;;;;45.70;30.05;;;;;;;18.28;69.48;97477.91;5071465;28;20341;-77
2021/06/25 03:30:30;;;;;;;43.50;29.38;;;;;;;18.38;69.54;97485.66;5051132;28;20029;-77
2021/06/25 03:32:56;;;;;;;45.47;30.45;;;;;;;18.25;69.69;97475.84;5069713;28;20037;-77
2021/06/25 03:35:21;;;;;;;42.97;28.60;;;;;;;18.28;69.55;97477.91;5070712;28;20609;-77
2021/06/25 03:37:46;;;;;;;41.20;27.63;;;;;;;18.29;69.26;97474.22;5064671;28;20103;-77
2021/06/25 03:40:13;;;;;;;40.17;27.80;;;;;;;18.21;69.35;97480.91;5054511;28;20040;-77
2021/06/25 03:42:40;;;;;;;45.65;29.88;;;;;;;18.23;69.36;97483.25;5053241;28;20457;-77
2021/06/25 03:45:08;;;;;;;40.47;28.30;;;;;;;18.19;69.53;97484.91;5034287;28;20024;-77
2021/06/25 03:47:33;;;;;;;43.53;29.20;;;;;;;18.21;69.29;97480.13;5037832;28;20348;-78
2021/06/25 03:49:59;;;;;;;46.85;30.35;;;;;;;18.16;69.34;97475.69;5037823;28;20028;-77
2021/06/25 03:52:24;;;;;;;48.90;30.58;;;;;;;18.08;69.69;97471.09;5024422;28;20467;-77
2021/06/25 03:54:49;;;;;;;50.10;30.02;;;;;;;18.11;69.90;97476.56;5036481;28;20037;-77
2021/06/25 03:57:15;;;;;;;47.38;30.08;;;;;;;18.09;69.98;97481.31;5036534;28;20029;-77
2021/06/25 03:59:40;;;;;;;47.75;30.75;;;;;;;18.15;69.73;97479.41;5070761;28;20024;-77
2021/06/25 04:02:10;;;;;;;47.63;28.88;;;;;;;18.12;69.81;97483.41;5052457;28;20399;-77
2021/06/25 04:04:36;;;;;;;45.58;30.48;;;;;;;18.09;70.19;97478.69;5039593;28;20021;-77
2021/06/25 04:07:02;;;;;;;43.53;28.83;;;;;;;18.09;70.36;97477.91;5054817;28;20033;-77
2021/06/25 04:09:27;;;;;;;45.70;28.63;;;;;;;18.09;70.10;97473.41;5047476;28;20048;-77
2021/06/25 04:11:53;;;;;;;43.33;29.52;;;;;;;18.05;70.28;97475.06;5070456;28;20074;-77
2021/06/25 04:14:19;;;;;;;50.20;30.55;;;;;;;18.06;70.14;97475.84;5040378;28;20094;-78
2021/06/25 04:16:44;;;;;;;43.85;28.67;;;;;;;18.04;70.35;97475.34;5050995;28;20029;-77
2021/06/25 04:19:09;;;;;;;45.60;30.60;;;;;;;18.06;69.96;97470.56;5054410;28;20103;-77
2021/06/25 04:21:35;;;;;;;42.92;29.20;;;;;;;18.06;70.25;97474.00;5053620;28;20025;-77
2021/06/25 04:24:00;;;;;;;43.17;27.92;;;;;;;18.05;69.90;97477.72;5053707;28;20033;-77
2021/06/25 04:26:25;;;;;;;46.05;29.88;;;;;;;18.04;70.24;97476.13;5050140;28;20025;-77
2021/06/25 04:28:51;;;;;;;46.90;29.80;;;;;;;18.02;70.23;97477.50;5069138;28;20036;-78
2021/06/25 04:31:16;;;;;;;47.35;29.50;;;;;;;17.99;70.34;97478.06;5053755;28;20402;-77
2021/06/25 04:33:42;;;;;;;46.97;29.67;;;;;;;18.01;70.28;97473.28;5049812;28;20112;-77
2021/06/25 04:36:07;;;;;;;40.33;28.38;;;;;;;18.03;69.82;97471.16;5035414;28;20037;-77
2021/06/25 04:38:32;;;;;;;49.70;29.70;;;;;;;18.04;69.91;97488.53;5053361;28;20032;-77
2021/06/25 04:40:58;;;;;;;48.80;29.75;;;;;;;18.01;70.21;97475.91;5071366;28;20032;-77
2021/06/25 04:43:24;;;;;;;49.00;30.80;;;;;;;17.99;70.23;97468.28;5052802;28;20036;-77
2021/06/25 04:45:50;;;;;;;47.72;29.52;;;;;;;18.07;69.72;97472.16;5020432;28;20066;-77
2021/06/25 04:48:16;;;;;;;45.60;28.92;;;;;;;18.04;69.92;97472.72;5053413;28;20425;-78
2021/06/25 04:50:43;;;;;;;43.92;30.00;;;;;;;18.04;69.75;97470.84;5052394;28;20021;-78
2021/06/25 04:53:09;;;;;;;43.83;28.75;;;;;;;18.07;69.80;97467.66;5051082;28;20024;-78
2021/06/25 04:55:41;;;;;;;47.70;31.15;;;;;;;18.05;69.93;97471.66;5066598;28;20529;-77
2021/06/25 04:58:10;;;;;;;43.55;29.30;;;;;;;18.02;69.73;97467.72;5053346;28;20039;-78
2021/06/25 05:00:36;;;;;;;41.38;27.15;;;;;;;18.05;70.03;97480.34;5068691;28;20115;-77
2021/06/25 05:03:01;;;;;;;47.50;30.65;;;;;;;18.04;69.77;97476.13;5051385;28;20128;-77
2021/06/25 05:05:27;;;;;;;46.35;29.83;;;;;;;18.06;69.28;97478.47;5044952;28;20433;-77
2021/06/25 05:07:52;;;;;;;51.25;30.83;;;;;;;18.08;69.21;97481.63;5049901;28;20051;-77
2021/06/25 05:10:18;;;;;;;44.55;30.27;;;;;;;18.08;69.29;97487.69;5069708;28;20028;-77
2021/06/25 05:12:43;;;;;;;43.47;29.40;;;;;;;18.06;68.95;97479.28;5068371;28;20079;-77
2021/06/25 05:15:09;;;;;;;44.83;29.65;;;;;;;18.07;69.23;97483.47;5034032;28;20025;-78
2021/06/25 05:17:35;;;;;;;42.55;28.58;;;;;;;18.10;69.26;97482.91;5070249;28;20037;-77
2021/06/25 05:20:01;;;;;;;39.67;27.63;;;;;;;18.11;69.37;97486.31;5037466;28;20070;-77
2021/06/25 05:22:27;;;;;;;45.40;27.98;;;;;;;18.13;69.49;97484.19;5056868;28;20039;-77
2021/06/25 05:24:52;;;;;;;49.35;31.92;;;;;;;18.12;69.84;97478.13;5039833;28;20036;-77
2021/06/25 05:27:18;;;;;;;43.72;29.60;;;;;;;18.15;69.59;97488.09;5075204;28;20555;-77
2021/06/25 05:29:43;;;;;;;43.50;28.52;;;;;;;18.18;69.52;97483.31;5066896;28;20020;-77
2021/06/25 05:32:08;;;;;;;42.17;27.27;;;;;;;18.18;69.22;97486.75;5054796;28;20036;-78
2021/06/25 05:34:34;;;;;;;46.63;29.73;;;;;;;18.18;69.39;97497.31;5073083;28;20036;-77
2021/06/25 05:36:59;;;;;;;44.90;29.00;;;;;;;18.19;69.26;97490.94;5075150;28;20036;-77
2021/06/25 05:39:24;;;;;;;47.47;31.13;;;;;;;18.19;69.24;97492.81;5075180;28;20037;-77
2021/06/25 05:41:50;;;;;;;43.75;29.02;;;;;;;18.21;69.07;97488.81;5074888;28;20020;-77
2021/06/25 05:44:15;;;;;;;40.33;28.02;;;;;;;18.28;68.67;97496.34;5037083;28;20063;-77
2021/06/25 05:46:41;;;;;;;43.35;28.67;;;;;;;18.31;68.86;97501.06;5034016;28;20391;-77
2021/06/25 05:49:06;;;;;;;41.22;27.35;;;;;;;18.29;68.73;97508.47;5067011;28;20082;-77
2021/06/25 05:51:32;;;;;;;38.53;26.80;;;;;;;18.33;68.72;97506.81;5052439;28;20040;-77
2021/06/25 05:53:57;;;;;;;39.03;25.02;;;;;;;18.34;68.65;97508.41;5055289;28;20056;-77
2021/06/25 05:56:22;;;;;;;42.65;29.17;;;;;;;18.37;68.90;97504.41;5056774;28;20040;-77
2021/06/25 05:58:48;;;;;;;41.33;28.88;;;;;;;18.38;68.94;97505.97;5073490;28;20090;-77
2021/06/25 06:01:13;;;;;;;41.53;29.08;;;;;;;18.39;69.00;97504.91;5061952;28;20513;-77
2021/06/25 06:03:40;;;;;;;42.33;27.95;;;;;;;18.42;68.58;97507.75;5039548;28;20032;-77
2021/06/25 06:06:06;;;;;;;43.53;28.63;;;;;;;18.46;68.91;97510.59;5043656;28;20105;-77
2021/06/25 06:08:32;;;;;;;41.47;29.30;;;;;;;18.46;68.32;97514.00;5042926;28;20120;-77
2021/06/25 06:10:57;;;;;;;43.40;29.00;;;;;;;18.53;68.12;97517.06;5056479;28;20781;-77
2021/06/25 06:13:22;;;;;;;41.53;28.58;;;;;;;18.57;68.45;97527.81;5073950;28;20395;-77
2021/06/25 06:15:48;;;;;;;40.00;26.88;;;;;;;18.59;68.24;97523.03;5041931;28;20376;-78
2021/06/25 06:18:25;;;;;;;42.15;28.13;;;;;;;18.43;68.43;97522.50;5056035;28;20044;-77
2021/06/25 06:20:50;;;;;;;39.92;26.52;;;;;;;18.61;67.50;97518.28;5038677;28;20021;-77
2021/06/25 06:31:30;;;;;;;41.22;26.77;;;;;;;18.82;67.55;97529.31;5052875;28;20111;-77
2021/06/25 06:33:57;;;;;;;37.13;25.55;;;;;;;18.80;67.48;97520.88;5073118;28;20028;-77
2021/06/25 06:36:33;;;;;;;35.97;25.35;;;;;;;18.70;67.21;97523.69;5072250;28;20033;-77
2021/06/25 06:39:00;;;;;;;40.13;26.95;;;;;;;18.75;67.79;97530.72;5035408;28;20036;-78
2021/06/25 06:41:27;;;;;;;38.10;25.15;;;;;;;18.83;67.43;97532.72;5072801;28;20528;-77
2021/06/25 06:43:53;;;;;;;35.25;24.83;;;;;;;18.94;66.73;97517.53;5072171;28;20539;-77
2021/06/25 06:46:18;;;;;;;41.35;27.52;;;;;;;18.88;67.26;97522.09;5055861;28;20040;-77
2021/06/25 06:48:45;;;;;;;35.35;25.75;;;;;;;18.94;67.32;97523.56;5056088;28;20063;-77
2021/06/25 06:51:14;;;;;;;36.75;25.27;;;;;;;19.00;66.03;97527.66;5028612;28;20028;-78
2021/06/25 06:53:43;;;;;;;33.08;24.08;;;;;;;19.25;65.57;97515.91;5035158;28;20040;-78
2021/06/25 06:56:17;;;;;;;32.38;23.48;;;;;;;19.24;65.38;97526.75;5049891;28;20503;-78
2021/06/25 06:58:45;;;;;;;30.92;22.80;;;;;;;19.51;65.15;97538.41;5056076;28;20042;-78
2021/06/25 07:01:11;;;;;;;32.88;23.52;;;;;;;19.61;64.82;97531.06;5055494;28;20040;-77
2021/06/25 07:03:36;;;;;;;30.80;24.02;;;;;;;19.71;64.13;97545.16;5055261;28;20024;-78
2021/06/25 07:06:03;;;;;;;33.67;24.52;;;;;;;19.70;64.39;97543.59;5071234;28;20036;-78
2021/06/25 07:08:28;;;;;;;31.35;23.88;;;;;;;19.66;63.80;97540.75;5055209;28;20032;-77
2021/06/25 07:10:54;;;;;;;27.02;20.60;;;;;;;19.72;63.41;97539.56;5071375;28;20039;-78
2021/06/25 07:13:19;;;;;;;30.58;22.33;;;;;;;19.81;63.50;97534.41;5033905;28;20030;-78
2021/06/25 07:15:45;;;;;;;32.85;23.58;;;;;;;19.81;63.92;97540.47;5038375;28;20044;-78
2021/06/25 07:18:10;;;;;;;31.30;23.63;;;;;;;19.88;63.54;97545.38;5072564;28;20048;-78
2021/06/25 07:20:36;;;;;;;31.90;23.48;;;;;;;19.92;63.67;97541.03;5027805;28;20043;-77
2021/06/25 07:23:01;;;;;;;32.40;22.52;;;;;;;20.00;62.94;97547.50;5069381;28;20495;-77
2021/06/25 07:25:29;;;;;;;29.30;21.88;;;;;;;19.99;62.68;97546.72;5050093;28;20033;-77
2021/06/25 07:27:58;;;;;;;37.45;24.13;;;;;;;19.86;64.85;97557.28;5051244;28;20037;-77
2021/06/25 07:30:24;;;;;;;32.63;23.25;;;;;;;19.88;65.42;97550.66;5052005;28;20037;-77
2021/06/25 07:32:49;;;;;;;35.97;24.92;;;;;;;19.81;66.32;97550.28;5061087;28;20035;-78
2021/06/25 07:35:15;;;;;;;32.88;23.92;;;;;;;19.81;64.82;97553.69;5033010;28;20025;-78
2021/06/25 07:37:41;;;;;;;29.88;23.42;;;;;;;19.82;64.79;97554.47;5030577;28;20021;-77
2021/06/25 07:40:08;;;;;;;32.30;22.63;;;;;;;19.78;64.65;97553.50;5052143;28;20440;-78
2021/06/25 07:42:33;;;;;;;30.80;22.80;;;;;;;19.96;63.42;97552.59;5015059;28;20067;-78
2021/06/25 07:45:00;;;;;;;32.22;23.83;;;;;;;19.95;63.47;97548.38;5050089;28;20060;-78
2021/06/25 07:47:26;;;;;;;31.20;23.67;;;;;;;20.09;61.99;97555.53;5036044;28;20094;-78
2021/06/25 07:49:52;;;;;;;28.15;21.73;;;;;;;20.04;62.82;97548.47;5052081;28;20110;-78
2021/06/25 07:52:21;;;;;;;26.60;20.60;;;;;;;20.18;62.29;97553.72;5051942;28;20042;-78
2021/06/25 07:54:46;;;;;;;30.75;22.00;;;;;;;20.31;60.78;97552.16;5067893;28;20033;-78
2021/06/25 07:57:11;;;;;;;33.47;23.15;;;;;;;20.36;62.02;97555.44;5046019;28;20115;-77
2021/06/25 07:59:37;;;;;;;26.25;21.05;;;;;;;20.41;61.89;97554.56;5034002;28;20037;-78
2021/06/25 08:02:04;;;;;;;28.58;22.45;;;;;;;20.37;62.25;97551.75;5068820;28;20029;-78
2021/06/25 08:04:31;;;;;;;26.83;19.88;;;;;;;20.38;61.55;97548.00;5034010;28;20648;-77
2021/06/25 08:06:56;;;;;;;26.35;21.65;;;;;;;20.46;60.96;97545.72;5048085;28;20029;-78
2021/06/25 08:09:22;;;;;;;28.80;21.20;;;;;;;20.36;61.37;97539.59;5060425;28;20114;-78
2021/06/25 08:11:48;;;;;;;27.83;22.35;;;;;;;20.28;63.48;97542.94;5050099;28;20037;-78
2021/06/25 08:14:14;;;;;;;26.83;20.98;;;;;;;20.45;61.48;97544.16;5055482;28;20082;-78
2021/06/25 08:16:39;;;;;;;28.35;21.85;;;;;;;20.43;60.61;97552.41;5051855;28;20025;-78
2021/06/25 08:19:06;;;;;;;31.73;22.95;;;;;;;20.37;62.01;97550.94;5060699;28;20062;-77
2021/06/25 08:21:32;;;;;;;30.75;22.95;;;;;;;20.31;62.14;97542.34;5046480;28;20830;-78
2021/06/25 08:23:57;;;;;;;28.13;20.50;;;;;;;20.41;61.46;97551.91;5027573;28;20039;-78
2021/06/25 08:26:23;;;;;;;29.45;23.50;;;;;;;20.33;62.94;97544.69;5063707;28;20040;-78
2021/06/25 08:28:49;;;;;;;26.85;21.63;;;;;;;20.38;61.48;97557.78;5051138;28;20131;-77
2021/06/25 08:31:15;;;;;;;30.73;22.00;;;;;;;20.34;62.02;97557.63;5011089;28;20547;-77
2021/06/25 08:33:41;;;;;;;28.98;22.95;;;;;;;20.28;61.95;97548.22;5050746;28;20052;-78
2021/06/25 08:36:07;;;;;;;28.15;22.23;;;;;;;20.26;61.24;97550.38;5056909;28;20159;-78
2021/06/25 08:38:33;;;;;;;24.23;19.25;;;;;;;20.25;61.72;97550.69;5030103;28;20187;-78
2021/06/25 08:40:58;;;;;;;27.75;22.13;;;;;;;20.17;62.09;97542.38;5051060;28;20040;-78
2021/06/25 08:43:24;;;;;;;29.33;23.67;;;;;;;20.16;63.45;97543.44;5068519;28;20025;-78
2021/06/25 08:45:50;;;;;;;29.83;23.13;;;;;;;20.10;63.91;97541.22;5048700;28;20031;-77
2021/06/25 08:48:17;;;;;;;26.67;20.95;;;;;;;20.08;63.52;97540.72;5052202;28;20044;-77
2021/06/25 08:50:48;;;;;;;26.77;19.73;;;;;;;20.07;62.67;97539.19;5064565;28;20475;-78
2021/06/25 08:53:13;;;;;;;28.10;22.20;;;;;;;20.08;63.24;97544.16;5035689;28;20047;-77
2021/06/25 08:55:43;;;;;;;28.00;20.40;;;;;;;20.04;63.02;97539.78;5028780;28;20028;-77
2021/06/25 08:58:18;;;;;;;23.90;19.90;;;;;;;19.87;63.32;97549.06;5055436;28;20033;-77
2021/06/25 09:00:44;;;;;;;28.42;22.05;;;;;;;20.00;63.52;97545.66;5056485;28;20024;-77
2021/06/25 09:03:28;;;;;;;25.08;20.17;;;;;;;19.79;64.14;97552.41;5035161;28;20032;-77
2021/06/25 09:06:06;;;;;;;26.88;21.30;;;;;;;19.74;64.41;97553.31;5050576;28;20120;-77
2021/06/25 09:08:31;;;;;;;26.10;19.75;;;;;;;19.92;64.36;97553.50;5045143;28;20066;-77
2021/06/25 09:10:59;;;;;;;27.35;21.73;;;;;;;19.92;64.09;97550.84;5053856;28;20075;-77
2021/06/25 09:13:37;;;;;;;27.73;20.73;;;;;;;19.82;63.99;97551.81;5024304;28;20043;-77
2021/06/25 09:16:23;;;;;;;33.05;22.98;;;;;;;19.74;64.60;97549.84;5067165;28;20029;-77
2021/06/25 09:19:07;;;;;;;25.58;20.02;;;;;;;19.77;64.60;97549.28;5048356;28;20039;-77
2021/06/25 09:22:02;;;;;;;28.88;21.67;;;;;;;19.75;65.24;97546.16;5029240;28;20083;-77
2021/06/25 09:24:28;;;;;;;31.40;20.95;;;;;;;20.02;64.67;97542.69;5020045;28;20043;-77
2021/06/25 09:27:05;;;;;;;26.90;21.50;;;;;;;19.92;64.40;97554.25;5069281;28;20044;-77
2021/06/25 09:29:49;;;;;;;26.13;20.08;;;;;;;20.14;63.81;97552.78;5068158;28;20039;-77
2021/06/25 09:32:15;;;;;;;29.98;21.98;;;;;;;20.15;63.92;97544.53;5063910;28;20042;-78
2021/06/25 09:34:42;;;;;;;29.08;22.45;;;;;;;20.11;63.63;97548.06;5051203;28;20082;-78
2021/06/25 09:37:12;;;;;;;30.02;21.45;;;;;;;20.02;64.46;97542.69;5012428;28;20593;-79
2021/06/25 09:39:41;;;;;;;25.60;20.42;;;;;;;20.06;63.64;97550.81;5041975;28;20064;-77
2021/06/25 09:42:21;;;;;;;26.27;19.33;;;;;;;19.87;63.61;97548.31;5015755;28;20025;-78
2021/06/25 09:45:09;;;;;;;28.50;21.35;;;;;;;19.91;63.50;97555.34;5051263;28;20028;-78
2021/06/25 09:47:40;;;;;;;27.77;21.02;;;;;;;19.90;63.76;97551.13;5031780;28;20037;-78
2021/06/25 09:50:17;;;;;;;28.83;22.52;;;;;;;19.96;63.64;97549.16;5022285;28;20108;-77
2021/06/25 09:52:52;;;;;;;29.38;21.92;;;;;;;19.81;63.84;97552.91;5061068;28;20060;-78
2021/06/25 09:55:23;;;;;;;31.30;22.50;;;;;;;19.89;63.75;97554.84;5062209;28;20025;-78
2021/06/25 10:03:39;;;;;;;31.30;22.23;;;;;;;19.87;64.00;97553.59;5051002;28;20468;-78
2021/06/25 10:06:26;;;;;;;32.17;23.92;;;;;;;19.89;64.82;97554.06;5032944;28;20079;-78
2021/06/25 10:08:52;;;;;;;30.92;22.92;;;;;;;19.91;64.50;97555.34;5046582;28;20422;-78
2021/06/25 10:11:20;;;;;;;31.25;23.33;;;;;;;19.92;64.92;97550.84;5050969;28;20032;-78
2021/06/25 10:13:47;;;;;;;33.78;24.15;;;;;;;19.96;65.03;97542.03;5053181;28;20761;-78
2021/06/25 10:16:12;;;;;;;33.92;24.02;;;;;;;20.08;65.38;97541.50;5039308;28;20032;-77
2021/06/25 10:18:40;;;;;;;35.88;25.15;;;;;;;20.04;65.83;97547.69;5039488;28;20037;-78
2021/06/25 10:21:08;;;;;;;28.65;23.05;;;;;;;20.24;65.82;97544.63;5031354;28;20485;-78
2021/06/25 10:23:36;;;;;;;36.30;26.27;;;;;;;20.29;64.37;97536.56;5061536;28;20021;-78
2021/06/25 10:26:07;;;;;;;29.92;22.45;;;;;;;20.43;63.97;97544.47;5058331;28;20039;-78
2021/06/25 10:28:35;;;;;;;30.80;23.60;;;;;;;20.49;64.48;97550.41;5056289;28;20044;-78
2021/06/25 10:31:01;;;;;;;31.40;22.95;;;;;;;20.60;64.31;97543.81;5047260;28;20492;-78
2021/06/25 10:33:27;;;;;;;27.42;21.60;;;;;;;20.68;62.91;97542.31;5052551;28;20037;-78
2021/06/25 10:35:52;;;;;;;29.23;21.90;;;;;;;20.75;63.20;97543.47;5072442;28;20047;-78
2021/06/25 10:38:19;;;;;;;28.88;21.48;;;;;;;20.83;62.89;97546.47;5072701;28;20112;-78
2021/06/25 10:41:02;;;;;;;30.00;23.05;;;;;;;20.73;62.02;97537.72;5051200;28;20044;-78
2021/06/25 10:43:50;;;;;;;31.00;23.65;;;;;;;20.86;62.18;97540.59;5073236;28;20021;-77
2021/06/25 10:46:24;;;;;;;27.83;20.65;;;;;;;21.08;60.32;97543.19;5042076;28;20033;-78
2021/06/25 10:48:53;;;;;;;30.52;22.13;;;;;;;21.24;59.99;97548.88;5054954;28;20028;-78
2021/06/25 10:51:29;;;;;;;26.65;20.40;;;;;;;21.38;59.41;97540.84;5064759;28;20031;-78
2021/06/25 10:54:15;;;;;;;25.83;19.80;;;;;;;21.41;60.07;97548.19;5054882;28;20032;-78
2021/06/25 10:56:42;;;;;;;28.33;20.88;;;;;;;21.70;60.55;97545.03;5058473;28;20033;-78
2021/06/25 10:59:28;;;;;;;26.42;20.35;;;;;;;21.66;59.51;97551.25;5070627;28;20040;-78
2021/06/25 11:01:59;;;;;;;;;;;;;;;21.60;59.20;97555.13;5037763;28;20565;-78
2021/06/25 11:04:43;;;;;;;23.67;18.23;;;;;;;21.79;59.06;97545.06;5054559;28;19961;-78
2021/06/25 11:07:17;;;;;;;24.35;19.20;;;;;;;21.84;58.00;97554.75;5054612;28;20029;-78
2021/06/25 11:09:52;;;;;;;24.23;19.45;;;;;;;21.80;56.61;97541.31;5054045;28;20021;-78
2021/06/25 11:12:24;;;;;;;24.10;20.10;;;;;;;21.73;56.17;97541.00;5070879;28;20511;-78
2021/06/25 11:14:53;;;;;;;24.92;19.20;;;;;;;21.74;56.02;97544.41;5059249;28;20024;-78
2021/06/25 11:17:47;;;;;;;24.65;18.83;;;;;;;21.64;56.27;97548.13;5052510;28;20038;-78
2021/06/25 11:20:31;;;;;;;23.33;19.10;;;;;;;21.66;55.76;97548.59;5069003;28;20041;-78
2021/06/25 11:23:12;;;;;;;24.63;19.08;;;;;;;21.58;55.21;97544.06;5036629;28;20056;-78
2021/06/25 11:25:43;;;;;;;21.95;18.05;;;;;;;21.73;56.51;97541.00;5056145;28;20094;-78
2021/06/25 11:28:24;;;;;;;26.95;21.63;;;;;;;21.63;59.13;97542.06;5053156;28;20036;-77
2021/06/25 11:31:05;;;;;;;23.45;18.55;;;;;;;21.93;57.88;97538.84;5072787;28;20606;-78
2021/06/25 11:33:36;;;;;;;23.13;19.67;;;;;;;22.18;57.04;97538.09;5019587;28;20025;-78
2021/06/25 11:36:39;;;;;;;28.30;20.10;;;;;;;22.26;58.27;97542.63;5072280;28;20431;-78